• Join FlightAware (Why Join?)
  • Login
  • US Flag 
Gobble Gobble! 
01:02AM EST


 

Airport Tracker/Info


-or-


 

Live Flight TrackerFlight Track Log ✈ F-HPJG ✈ 30-Jun-2013 ✈ KJFK - LFPG / CDG

Flight Track Log - Related Links

Times and Time Zones

All times are in EDT time to prevent confusion due to time zone crossing. See the F-HPJG flight status page for this flight to view local times or setup timezone preferences in your user account.

Time Position Orientation Groundspeed Altitude Reporting Facility
EDT Latitude Longitude Course Direction KTS MPH feet Rate Location/Type
07:35PM 40.6430 -73.7940 225° Southwest 9 10  Level FlightAware
07:35PM 40.6420 -73.7940 180° South 9 10  Level FlightAware
07:38PM 40.8141 -73.4862 90° East  Level Estimated
07:39PM 40.8881 -73.3529 102° East  Level Estimated
07:40PM 40.9619 -73.2193 97° East  Level Estimated
07:41PM 41.0356 -73.0853 66° East  Level Estimated
07:42PM 41.1092 -72.9511 78° East  Level Estimated
07:43PM 41.1826 -72.8165 66° East  Level Estimated
07:44PM 41.2558 -72.6817 68° East  Level Estimated
07:45PM 41.3289 -72.5465 72° East  Level Estimated
07:46PM 41.4019 -72.4111 78° East  Level Estimated
07:47PM 41.4746 -72.2753 69° East  Level Estimated
07:48PM 41.5472 -72.1393 72° East  Level Estimated
07:49PM 41.4414 -72.0502 148° Southeast  Level FlightAware Approximate
07:50PM 41.5139 -71.9141 70° East  Level Estimated
07:51PM 41.4163 -71.8096 141° Southeast  Level FlightAware Approximate
07:52PM 41.4888 -71.6735 72° East  Level Estimated
07:53PM 41.4083 -71.5458 130° Southeast  Level FlightAware Approximate
07:54PM 41.4806 -71.4095 73° East  Level Estimated
07:55PM 41.4402 -71.2515 109° East  Level FlightAware Approximate
07:55PM 40.6400 -73.7940 90° East 27 31  Level FlightAware
07:55PM 40.6390 -73.7920 123° Southeast 28 32  Level FlightAware
07:56PM 40.6390 -73.7900 90° East 28 32  Level FlightAware
07:56PM 40.6380 -73.7890 143° Southeast 23 26  Level FlightAware
07:57PM 40.6370 -73.7880 143° Southeast 17 20  Level FlightAware
07:58PM 40.6370 -73.7860 90° East 25 29  Level FlightAware
07:58PM 40.6360 -73.7840 123° Southeast 16 18  Level FlightAware
07:58PM 40.6350 -73.7820 123° Southeast 17 20  Level FlightAware
07:59PM 40.6340 -73.7800 123° Southeast 32 37  Level FlightAware
07:59PM 40.6360 -73.7780 37° Northeast 34 39  Level FlightAware
08:00PM 40.6390 -73.7760 27° Northeast 16 18  Level FlightAware
08:01PM 40.6400 -73.7740 57° Northeast 17 20  Level FlightAware
08:01PM 40.6420 -73.7730 21° North 27 31  Level FlightAware
08:02PM 40.6440 -73.7720 21° North 21 24  Level FlightAware
08:03PM 40.6440 -73.7700 90° East  Level FlightAware
08:04PM 40.6440 -73.7690 90° East 22 25  Level FlightAware
08:04PM 40.6430 -73.7680 143° Southeast 26 30  Level FlightAware
08:05PM 40.6430 -73.7670 90° East 26 30  Level FlightAware
08:05PM 40.6430 -73.7660 90° East 21 24  Level FlightAware
08:06PM 40.6440 -73.7650 37° Northeast 28 32  Level FlightAware
08:07PM 40.6470 -73.7620 90° East 21 24  Level FlightAware
08:08PM 40.6000 -73.4883 90° East  Level FlightAware Approximate
08:10PM 40.6000 -73.4224 90° East  Level FlightAware Approximate
08:10PM 40.6480 -73.7630 102° East  Level FlightAware
08:11PM 40.5718 -73.2639 102° East  Level FlightAware Approximate
08:13PM 40.6000 -73.4444 90° East  Level FlightAware Approximate
08:14PM 40.5754 -73.2854 102° East  Level FlightAware Approximate
08:15PM 40.5566 -73.1227 97° East  Level FlightAware Approximate
08:16PM 40.5626 -72.9621 66° East  Level FlightAware Approximate
08:17PM 40.6044 -72.8072 78° East  Level FlightAware Approximate
08:18PM 40.6391 -72.6493 66° East  Level FlightAware Approximate
08:19PM 40.6788 -72.4937 78° East  Level FlightAware Approximate
08:20PM 40.7217 -72.3390 68° East  Level FlightAware Approximate
08:21PM 40.7626 -72.1830 72° East  Level FlightAware Approximate
08:22PM 40.7955 -72.0240 69° East  Level FlightAware Approximate
08:23PM 40.8364 -71.8678 72° East  Level FlightAware Approximate
08:24PM 40.8739 -71.7100 72° East  Level FlightAware Approximate
08:25PM 40.9097 -71.5515 75° East  Level FlightAware Approximate
08:26PM 40.9500 -71.3948 70° East  Level FlightAware Approximate
08:27PM 40.9896 -71.2376 72° East  Level FlightAware Approximate
08:28PM 41.0272 -71.0795 72° East  Level FlightAware Approximate
08:29PM 41.0645 -70.9212 73° East  Level FlightAware Approximate
08:30PM 41.1014 -70.7626 73° East  Level FlightAware Approximate
08:31PM 41.1381 -70.6038 73° East  Level FlightAware Approximate
08:32PM 41.1746 -70.4449 73° East  Level FlightAware Approximate
08:33PM 41.2101 -70.2855 74° East  Level FlightAware Approximate
08:34PM 40.6480 -73.7650 270° West 13 15  Level FlightAware
08:34PM 40.6470 -73.7660 217° Southwest 30 35 60 Level FlightAware
08:35PM 40.6390 -73.7720 210° Southwest 119 137 100 420 Climbing FlightAware
08:35PM 40.6220 -73.7860 212° Southwest 155 178 400 1,080 Climbing FlightAware
08:35PM 40.6130 -73.7940 214° Southwest 148 170 900 1,740 Climbing FlightAware
08:36PM 40.5980 -73.8070 213° Southwest 141 162 1,700 1,320 Climbing FlightAware
08:36PM 40.5900 -73.8120 205° Southwest 150 173 1,800 840 Climbing FlightAware
08:36PM 40.5790 -73.8090 168° South 173 199 2,100 780 Climbing FlightAware
08:37PM 40.5610 -73.7840 133° Southeast 230 265 2,400 780 Climbing FlightAware
08:37PM 40.5580 -73.7700 106° East 248 285 2,600 2,220 Climbing FlightAware
08:38PM 40.5580 -73.6980 90° East 280 322 4,400 2,580 Climbing FlightAware
08:38PM 40.5600 -73.6490 87° East 284 327 5,700 2,880 Climbing FlightAware
08:38PM 40.5610 -73.6040 88° East 286 329 7,000 2,760 Climbing FlightAware
08:39PM 40.5600 -73.5510 91° East 295 339 8,300 2,460 Climbing FlightAware
08:39PM 40.5600 -73.5230 90° East 302 348 8,900 2,340 Climbing FlightAware
08:40PM 40.5600 -73.4490 90° East 314 361 10,500 1,920 Climbing FlightAware
08:41PM 40.5600 -73.3580 90° East 362 417 11,600 1,200 Climbing FlightAware
08:41PM 40.5600 -73.2660 90° East 406 467 12,200 1,740 Climbing FlightAware
08:42PM 40.5590 -73.1570 91° East 420 483 14,000 2,340 Climbing FlightAware
08:43PM 40.5590 -73.0450 90° East 434 499 15,600 1,980 Climbing FlightAware
08:43PM 40.5790 -72.9340 77° East 455 524 16,900 2,040 Climbing FlightAware
08:44PM 40.6060 -72.8290 71° East 461 531 18,400 1,740 Climbing FlightAware
08:45PM 40.6290 -72.7380 72° East 467 537 19,600 1,860 Climbing FlightAware
08:46PM 40.6690 -72.5790 72° East 482 555 21,300 1,800 Climbing FlightAware
08:46PM 40.7000 -72.4590 71° East 501 577 22,200 1,440 Climbing FlightAware
08:47PM 40.7340 -72.3220 72° East 512 589 23,500 1,680 Climbing FlightAware
08:48PM 40.7640 -72.2000 72° East 518 596 24,600 1,380 Climbing FlightAware
08:48PM 40.7940 -72.0810 72° East 530 610 25,400 1,320 Climbing FlightAware
08:49PM 40.8280 -71.9440 72° East 540 621 26,500 1,500 Climbing FlightAware
08:50PM 40.8590 -71.8200 72° East 544 626 27,500 1,260 Climbing FlightAware
08:51PM 40.8940 -71.6750 72° East 554 638 28,300 1,320 Climbing FlightAware
08:51PM 40.9260 -71.5460 72° East 555 639 29,400 1,200 Climbing FlightAware
08:52PM 40.9620 -71.3970 72° East 554 638 30,100 1,560 Climbing FlightAware
08:53PM 41.0300 -71.3130 43° Northeast 546 628 31,600 1,920 Climbing FlightAware
08:53PM 41.1160 -71.2130 41° Northeast 546 628 32,700 1,440 Climbing FlightAware
08:54PM 41.1900 -71.1240 42° Northeast 545 627 33,700 1,620 Climbing FlightAware
08:55PM 41.2680 -71.0310 42° Northeast 543 625 34,900 1,500 Climbing FlightAware
08:56PM 41.3680 -70.9130 42° Northeast 542 624 36,100 1,200 Climbing FlightAware
08:56PM 41.4510 -70.8130 42° Northeast 538 619 37,000 600 Climbing FlightAware
08:57PM 41.5270 -70.7220 42° Northeast 543 625 37,000  Level FlightAware
08:58PM 41.5850 -70.6520 42° Northeast 543 625 37,000  Level FlightAware
08:58PM 41.6790 -70.5390 42° Northeast 542 624 37,000  Level FlightAware
08:59PM 41.7700 -70.4280 42° Northeast 542 624 37,000  Level FlightAware
09:01PM 41.9360 -70.2250 42° Northeast 543 625 37,000  Level FlightAware
09:01PM 41.9990 -70.1480 42° Northeast 542 624 37,000  Level FlightAware
09:02PM 42.0650 -70.0660 43° Northeast 543 625 37,000  Level FlightAware
09:03PM 42.1570 -69.9530 42° Northeast 544 626 37,000  Level FlightAware
09:03PM 42.2300 -69.8620 43° Northeast 545 627 37,000  Level FlightAware
09:04PM 42.3040 -69.7700 43° Northeast 547 629 37,000  Level FlightAware
09:05PM 42.3770 -69.6780 43° Northeast 549 632 37,000  Level FlightAware
09:05PM 42.4540 -69.5830 42° Northeast 551 634 37,000  Level FlightAware
09:06PM 42.5370 -69.4780 43° Northeast 550 633 37,000  Level FlightAware
09:07PM 42.6120 -69.3830 43° Northeast 551 634 37,000  Level FlightAware
09:08PM 42.6960 -69.2770 43° Northeast 553 636 37,000  Level FlightAware
09:08PM 42.7660 -69.1870 43° Northeast 553 636 37,000  Level FlightAware
09:09PM 42.8430 -69.0900 43° Northeast 553 636 37,000  Level FlightAware
09:10PM 42.9380 -68.9680 43° Northeast 553 636 37,000  Level FlightAware
09:10PM 43.0030 -68.8850 43° Northeast 554 638 37,000  Level FlightAware
09:12PM 43.1300 -68.7220 43° Northeast 555 639 37,000  Level FlightAware
09:12PM 43.1870 -68.6480 43° Northeast 555 639 37,000  Level FlightAware
09:13PM 43.2650 -68.5480 43° Northeast 555 639 37,000  Level FlightAware
09:14PM 43.3230 -68.4740 43° Northeast 555 639 37,000  Level FlightAware
09:14PM 43.3990 -68.3760 43° Northeast 555 639 37,000  Level FlightAware
09:15PM 43.4580 -68.3000 43° Northeast 555 639 37,000  Level FlightAware
09:16PM 43.5160 -68.2260 43° Northeast 555 639 37,000  Level FlightAware
09:16PM 43.5920 -68.1280 43° Northeast 555 639 37,000  Level FlightAware
09:17PM 43.6500 -68.0540 43° Northeast 555 639 37,000  Level FlightAware
09:18PM 43.7280 -67.9530 43° Northeast 555 639 37,000  Level FlightAware
09:18PM 43.7860 -67.8790 43° Northeast 555 639 37,000  Level FlightAware
09:19PM 43.8620 -67.7800 43° Northeast 555 639 37,000  Level FlightAware
09:20PM 43.9200 -67.7050 43° Northeast 555 639 37,000  Level FlightAware
09:21PM 44.1730 -67.3340 46° Northeast 563 648 37,000  Level FlightAware
09:21PM 44.2470 -67.2330 44° Northeast 563 648 37,000  Level FlightAware
09:22PM 44.3210 -67.1310 45° Northeast 564 649 37,000  Level FlightAware
09:23PM 44.4030 -67.0180 45° Northeast 566 651 37,000  Level FlightAware
09:23PM 44.4760 -66.9140 45° Northeast 567 652 37,000  Level FlightAware
09:24PM 44.5530 -66.7940 48° Northeast 566 651 37,000  Level FlightAware
09:25PM 44.6240 -66.6860 47° Northeast 565 650 37,000  Level FlightAware
09:26PM 44.7030 -66.5660 47° Northeast 564 649 37,000  Level FlightAware
09:26PM 44.7760 -66.4540 47° Northeast 564 649 37,000  Level FlightAware
09:27PM 44.8540 -66.3360 47° Northeast 566 651 37,000  Level FlightAware
09:28PM 44.9230 -66.2280 48° Northeast 566 651 37,000  Level FlightAware
09:28PM 45.0010 -66.1080 47° Northeast 569 655 37,000  Level FlightAware
09:29PM 45.0720 -65.9980 48° Northeast 569 655 37,000  Level FlightAware
09:30PM 45.1510 -65.8750 48° Northeast 569 655 37,000  Level FlightAware
09:30PM 45.2210 -65.7660 48° Northeast 569 655 37,000  Level FlightAware
09:31PM 45.2870 -65.6610 48° Northeast 567 652 37,000  Level FlightAware
09:32PM 45.3690 -65.5320 48° Northeast 569 655 37,000  Level FlightAware
09:33PM 45.4390 -65.4210 48° Northeast 571 657 37,000  Level FlightAware
09:33PM 45.5170 -65.2970 48° Northeast 570 656 37,000  Level FlightAware
09:34PM 45.5860 -65.1860 48° Northeast 567 652 37,000  Level FlightAware
09:35PM 45.6650 -65.0590 48° Northeast 565 650 37,000  Level FlightAware
09:35PM 45.7250 -64.9620 48° Northeast 566 651 37,000  Level FlightAware
09:36PM 45.8100 -64.8260 48° Northeast 567 652 37,000  Level FlightAware
09:37PM 45.8720 -64.7240 49° Northeast 568 654 37,000  Level FlightAware
09:38PM 45.9550 -64.5880 49° Northeast 567 652 37,000  Level FlightAware
09:38PM 46.0120 -64.4960 48° Northeast 568 654 37,000  Level FlightAware
09:39PM 46.0860 -64.3760 48° Northeast 568 654 37,000  Level FlightAware
09:40PM 46.1810 -64.2160 49° Northeast 570 656 37,000  Level FlightAware
09:41PM 46.2520 -64.0980 49° Northeast 570 656 37,000  Level FlightAware
09:41PM 46.3050 -64.0100 49° Northeast 570 656 37,000  Level FlightAware
09:42PM 46.3940 -63.8610 49° Northeast 570 656 37,000  Level FlightAware
09:43PM 46.4470 -63.7720 49° Northeast 570 656 37,000  Level FlightAware
09:44PM 46.5190 -63.6520 49° Northeast 570 656 37,000  Level FlightAware
09:44PM 46.5720 -63.5630 49° Northeast 570 656 37,000  Level FlightAware
09:45PM 46.6430 -63.4450 49° Northeast 570 656 37,000  Level FlightAware
09:46PM 46.6960 -63.3560 49° Northeast 570 656 37,000  Level FlightAware
09:46PM 46.7660 -63.2380 49° Northeast 570 656 37,000  Level FlightAware
09:47PM 46.8190 -63.1490 49° Northeast 570 656 37,000  Level FlightAware
09:48PM 46.8900 -63.0300 49° Northeast 570 656 37,000  Level FlightAware
09:48PM 46.9440 -62.9380 49° Northeast 570 656 37,000  Level FlightAware
09:49PM 47.1167 -62.5500 49° Northeast 570 656 37,000  Level Gander Center
09:50PM 47.2167 -62.3833 49° Northeast 580 667 37,000  Level Gander Center
09:51PM 47.3333 -62.2167 44° Northeast 580 667 37,000  Level Gander Center
09:52PM 47.4333 -62.0000 56° Northeast 570 656 37,000  Level Moncton Center
09:53PM 47.5333 -61.8167 51° Northeast 570 656 37,000  Level Moncton Center
09:54PM 47.6500 -61.6167 49° Northeast 570 656 37,000  Level Moncton Center
09:55PM 47.7500 -61.4667 45° Northeast 570 656 37,000  Level Moncton Center
09:56PM 47.8333 -61.2500 60° Northeast 570 656 37,000  Level Moncton Center
09:57PM 47.9500 -61.0667 46° Northeast 580 667 37,000  Level Moncton Center
10:03PM 48.4930 -60.0800 46° Northeast 577 664 37,000  Level FlightAware
10:03PM 48.5490 -59.9700 52° Northeast 577 664 37,000  Level FlightAware
10:04PM 48.6330 -59.8080 52° Northeast 577 664 37,000  Level FlightAware
10:06PM 48.7790 -59.5220 52° Northeast 579 666 37,000  Level FlightAware
10:06PM 48.8500 -59.3800 53° Northeast 579 666 37,000  Level FlightAware
10:07PM 48.9100 -59.2620 52° Northeast 576 663 37,000  Level FlightAware
10:08PM 49.0220 -59.0390 52° Northeast 578 665 37,000  Level FlightAware
10:09PM 49.1090 -58.8610 53° Northeast 578 665 37,000  Level FlightAware
10:09PM 49.1660 -58.7450 53° Northeast 580 667 37,000  Level FlightAware
10:12PM 49.3950 -58.1930 57° Northeast 583 671 37,000  Level FlightAware
10:13PM 49.4450 -58.0580 60° Northeast 585 673 37,000  Level FlightAware
10:14PM 49.5080 -57.8860 61° Northeast 584 672 37,000  Level FlightAware
10:14PM 49.5680 -57.7240 60° Northeast 584 672 37,000  Level FlightAware
10:15PM 49.6280 -57.5600 60° Northeast 582 670 37,000  Level FlightAware
10:16PM 49.6950 -57.3740 61° Northeast 581 669 37,000  Level FlightAware
10:17PM 49.7770 -57.1450 61° Northeast 585 673 37,000  Level FlightAware
10:18PM 49.8240 -57.0150 61° Northeast 585 673 37,000  Level FlightAware
10:18PM 49.8820 -56.8520 61° Northeast 584 672 37,000  Level FlightAware
10:19PM 49.9330 -56.7050 62° Northeast 584 672 37,000  Level FlightAware
10:20PM 49.9900 -56.5440 61° Northeast 587 676 37,000  Level FlightAware
10:20PM 50.0380 -56.4070 61° Northeast 588 677 37,000  Level FlightAware
10:21PM 50.1020 -56.2220 62° Northeast 588 677 37,000  Level FlightAware
10:22PM 50.1530 -56.0740 62° Northeast 591 680 37,000  Level FlightAware
10:23PM 50.2070 -55.9140 62° Northeast 593 682 37,000  Level FlightAware
10:23PM 50.2620 -55.7540 62° Northeast 594 684 37,000  Level FlightAware
10:24PM 50.3180 -55.5870 62° Northeast 596 686 37,000  Level FlightAware
10:25PM 50.3710 -55.4290 62° Northeast 595 685 37,000  Level FlightAware
10:25PM 50.4220 -55.2780 62° Northeast 596 686 37,000  Level FlightAware
10:26PM 50.4790 -55.1040 63° Northeast 595 685 37,000  Level FlightAware
10:27PM 50.5300 -54.9510 62° Northeast 596 686 37,000  Level FlightAware
10:27PM 50.5850 -54.7820 63° Northeast 596 686 37,000  Level FlightAware
10:28PM 50.6340 -54.6320 63° Northeast 596 686 37,000  Level FlightAware
10:29PM 50.6970 -54.4350 63° Northeast 597 687 37,000  Level FlightAware
10:30PM 50.7530 -54.2600 63° Northeast 595 685 37,000  Level FlightAware
10:31PM 50.8430 -53.9770 63° Northeast 594 684 37,000  Level FlightAware
10:32PM 50.8820 -53.8590 62° Northeast 594 684 37,000  Level FlightAware
10:32PM 50.9340 -53.6970 63° Northeast 594 684 37,000  Level FlightAware
10:33PM 50.9720 -53.5780 63° Northeast 594 684 37,000  Level FlightAware
10:34PM 51.0230 -53.4190 63° Northeast 594 684 37,000 960 Level FlightAware
10:34PM 51.0910 -53.1780 66° East 39,000 1,560 Climbing FlightAware
10:35PM 51.1310 -53.0470 64° Northeast 585 673 39,000  Level FlightAware
10:36PM 51.2220 -52.7470 64° Northeast 586 674 39,000  Level FlightAware
10:37PM 51.2590 -52.6270 64° Northeast 586 674 39,000  Level FlightAware
10:38PM 51.3070 -52.4680 64° Northeast 586 674 39,000  Level FlightAware
10:38PM 51.3440 -52.3490 64° Northeast 586 674 39,000  Level FlightAware
10:39PM 51.3920 -52.1900 64° Northeast 586 674 39,000  Level FlightAware
10:40PM 51.4280 -52.0700 64° Northeast 586 674 39,000  Level FlightAware
10:41PM 51.4770 -51.9110 64° Northeast 586 674 39,000  Level FlightAware
10:41PM 51.5130 -51.7910 64° Northeast 586 674 39,000  Level FlightAware
10:42PM 51.5620 -51.6310 64° Northeast 586 674 39,000  Level FlightAware
10:43PM 51.5980 -51.5110 64° Northeast 586 674 39,000  Level FlightAware
10:43PM 51.6470 -51.3480 64° Northeast 586 674 39,000  Level FlightAware
10:44PM 51.6820 -51.2340 64° Northeast 586 674 39,000  Level FlightAware
10:45PM 51.7300 -51.0740 64° Northeast 586 674 39,000  Level FlightAware
10:45PM 51.7670 -50.9530 64° Northeast 586 674 39,000  Level FlightAware
10:46PM 51.8667 -50.3667 64° Northeast 590 679 39,000  Level Gander Center
10:47PM 51.9333 -50.1333 65° Northeast 580 667 39,000  Level Gander Center
10:48PM 52.0000 -49.9000 65° Northeast 580 667 39,000  Level Gander Center
10:50PM 52.0349 -49.6674 76° East  Level FlightAware Approximate
10:57PM 52.2652 -48.0286 78° East  Level FlightAware Approximate
10:58PM 52.2943 -47.7925 79° East  Level FlightAware Approximate
10:59PM 52.3229 -47.5561 79° East  Level FlightAware Approximate
11:00PM 52.3511 -47.3194 79° East  Level FlightAware Approximate
11:01PM 52.3788 -47.0824 79° East  Level FlightAware Approximate
11:02PM 52.4061 -46.8451 79° East  Level FlightAware Approximate
11:03PM 52.4328 -46.6075 79° East  Level FlightAware Approximate
11:04PM 52.4591 -46.3696 80° East  Level FlightAware Approximate
11:05PM 52.4853 -46.1316 80° East  Level FlightAware Approximate
11:06PM 52.5111 -45.8933 80° East  Level FlightAware Approximate
11:07PM 52.5365 -45.6547 80° East  Level FlightAware Approximate
11:08PM 52.5614 -45.4159 80° East  Level FlightAware Approximate
11:09PM 52.5859 -45.1768 80° East  Level FlightAware Approximate
11:10PM 52.6098 -44.9375 81° East  Level FlightAware Approximate
11:11PM 52.6333 -44.6978 81° East  Level FlightAware Approximate
11:12PM 52.6562 -44.4580 81° East  Level FlightAware Approximate
11:13PM 52.6787 -44.2178 81° East  Level FlightAware Approximate
11:14PM 52.7007 -43.9775 81° East  Level FlightAware Approximate
11:15PM 52.7224 -43.7369 81° East  Level FlightAware Approximate
11:16PM 52.7439 -43.4961 81° East  Level FlightAware Approximate
11:17PM 52.7650 -43.2552 82° East  Level FlightAware Approximate
11:18PM 52.7855 -43.0140 82° East  Level FlightAware Approximate
11:19PM 52.8056 -42.7726 82° East  Level FlightAware Approximate
11:20PM 52.8252 -42.5309 82° East  Level FlightAware Approximate
11:21PM 52.8443 -42.2891 82° East  Level FlightAware Approximate
11:22PM 52.8629 -42.0470 83° East  Level FlightAware Approximate
11:23PM 52.8810 -41.8047 83° East  Level FlightAware Approximate
11:24PM 52.8986 -41.5623 83° East  Level FlightAware Approximate
11:25PM 52.9157 -41.3196 83° East  Level FlightAware Approximate
11:26PM 52.9324 -41.0768 83° East  Level FlightAware Approximate
11:27PM 52.9485 -40.8337 84° East  Level FlightAware Approximate
11:28PM 52.9641 -40.5905 84° East  Level FlightAware Approximate
11:29PM 52.9793 -40.3471 84° East  Level FlightAware Approximate
11:30PM 52.9939 -40.1036 84° East  Level FlightAware Approximate
11:31PM 53.0058 -39.8595 86° East  Level FlightAware Approximate
11:32PM 53.0155 -39.6152 86° East  Level FlightAware Approximate
11:33PM 53.0248 -39.3707 86° East  Level FlightAware Approximate
11:34PM 53.0335 -39.1261 87° East  Level FlightAware Approximate
11:35PM 53.0417 -38.8814 87° East  Level FlightAware Approximate
11:36PM 53.0495 -38.6367 87° East  Level FlightAware Approximate
11:37PM 53.0567 -38.3918 87° East  Level FlightAware Approximate
11:38PM 53.0634 -38.1469 87° East  Level FlightAware Approximate
11:39PM 53.0696 -37.9019 87° East  Level FlightAware Approximate
11:40PM 53.0753 -37.6568 88° East  Level FlightAware Approximate
11:41PM 53.0806 -37.4117 88° East  Level FlightAware Approximate
11:42PM 53.0853 -37.1665 88° East  Level FlightAware Approximate
11:43PM 53.0895 -36.9213 88° East  Level FlightAware Approximate
11:44PM 53.0932 -36.6760 88° East  Level FlightAware Approximate
11:45PM 53.0964 -36.4307 89° East  Level FlightAware Approximate
11:46PM 53.0990 -36.1853 89° East  Level FlightAware Approximate
11:47PM 53.1012 -35.9399 89° East  Level FlightAware Approximate
11:48PM 53.1029 -35.6945 89° East  Level FlightAware Approximate
11:49PM 53.1041 -35.4491 89° East  Level FlightAware Approximate
11:50PM 53.1048 -35.2037 90° East  Level FlightAware Approximate
11:51PM 53.1049 -34.9582 90° East  Level FlightAware Approximate
11:52PM 53.1046 -34.7128 90° East  Level FlightAware Approximate
11:53PM 53.1037 -34.4674 90° East  Level FlightAware Approximate
11:54PM 53.1024 -34.2219 90° East  Level FlightAware Approximate
11:55PM 53.1006 -33.9765 91° East  Level FlightAware Approximate
11:56PM 53.0982 -33.7312 91° East  Level FlightAware Approximate
11:57PM 53.0953 -33.4858 91° East  Level FlightAware Approximate
11:58PM 53.0920 -33.2405 91° East  Level FlightAware Approximate
11:59PM 53.0881 -32.9952 91° East  Level FlightAware Approximate
12:00AM 53.0837 -32.7500 92° East  Level FlightAware Approximate
12:01AM 53.0788 -32.5048 92° East  Level FlightAware Approximate
12:02AM 53.0735 -32.2597 92° East  Level FlightAware Approximate
12:03AM 53.0676 -32.0147 92° East  Level FlightAware Approximate
12:04AM 53.0612 -31.7697 92° East  Level FlightAware Approximate
12:05AM 53.0543 -31.5248 93° East  Level FlightAware Approximate
12:06AM 53.0469 -31.2800 93° East  Level FlightAware Approximate
12:07AM 53.0390 -31.0352 93° East  Level FlightAware Approximate
12:08AM 53.0306 -30.7906 93° East  Level FlightAware Approximate
12:09AM 53.0217 -30.5461 93° East  Level FlightAware Approximate
12:10AM 53.0123 -30.3016 94° East  Level FlightAware Approximate
12:11AM 53.0024 -30.0573 94° East  Level FlightAware Approximate
12:12AM 53.0077 -29.8130 86° East  Level FlightAware Approximate
12:13AM 53.0174 -29.5686 86° East  Level FlightAware Approximate
12:14AM 53.0265 -29.3241 86° East  Level FlightAware Approximate
12:15AM 53.0351 -29.0795 87° East  Level FlightAware Approximate
12:16AM 53.0433 -28.8348 87° East  Level FlightAware Approximate
12:17AM 53.0509 -28.5900 87° East  Level FlightAware Approximate
12:18AM 53.0580 -28.3452 87° East  Level FlightAware Approximate
12:19AM 53.0646 -28.1002 87° East  Level FlightAware Approximate
12:20AM 53.0708 -27.8552 88° East  Level FlightAware Approximate
12:21AM 53.0764 -27.6101 88° East  Level FlightAware Approximate
12:22AM 53.0815 -27.3650 88° East  Level FlightAware Approximate
12:23AM 53.0861 -27.1198 88° East  Level FlightAware Approximate
12:24AM 53.0902 -26.8745 88° East  Level FlightAware Approximate
12:25AM 53.0938 -26.6292 89° East  Level FlightAware Approximate
12:26AM 53.0969 -26.3839 89° East  Level FlightAware Approximate
12:27AM 53.0995 -26.1385 89° East  Level FlightAware Approximate
12:28AM 53.1016 -25.8932 89° East  Level FlightAware Approximate
12:29AM 53.1032 -25.6478 89° East  Level FlightAware Approximate
12:30AM 53.1043 -25.4023 89° East  Level FlightAware Approximate
12:31AM 53.1048 -25.1569 90° East  Level FlightAware Approximate
12:32AM 53.1049 -24.9114 90° East  Level FlightAware Approximate
12:33AM 53.1045 -24.6660 90° East  Level FlightAware Approximate
12:34AM 53.1035 -24.4206 90° East  Level FlightAware Approximate
12:35AM 53.1021 -24.1751 90° East  Level FlightAware Approximate
12:36AM 53.1001 -23.9298 91° East  Level FlightAware Approximate
12:37AM 53.0977 -23.6844 91° East  Level FlightAware Approximate
12:38AM 53.0947 -23.4390 91° East  Level FlightAware Approximate
12:39AM 53.0913 -23.1937 91° East  Level FlightAware Approximate
12:40AM 53.0873 -22.9485 91° East  Level FlightAware Approximate
12:41AM 53.0828 -22.7033 92° East  Level FlightAware Approximate
12:42AM 53.0779 -22.4581 92° East  Level FlightAware Approximate
12:43AM 53.0724 -22.2130 92° East  Level FlightAware Approximate
12:44AM 53.0664 -21.9680 92° East  Level FlightAware Approximate
12:45AM 53.0599 -21.7230 92° East  Level FlightAware Approximate
12:46AM 53.0529 -21.4781 93° East  Level FlightAware Approximate
12:47AM 53.0454 -21.2333 93° East  Level FlightAware Approximate
12:48AM 53.0374 -20.9886 93° East  Level FlightAware Approximate
12:49AM 53.0289 -20.7440 93° East  Level FlightAware Approximate
12:50AM 53.0199 -20.4995 93° East  Level FlightAware Approximate
12:51AM 53.0104 -20.2550 94° East  Level FlightAware Approximate
12:52AM 53.0005 -20.0107 94° East  Level FlightAware Approximate
12:53AM 52.9680 -19.7721 103° East  Level FlightAware Approximate
12:54AM 52.9340 -19.5342 103° East  Level FlightAware Approximate
12:55AM 52.8995 -19.2966 103° East  Level FlightAware Approximate
12:56AM 52.8646 -19.0593 104° East  Level FlightAware Approximate
12:57AM 52.8292 -18.8225 104° East  Level FlightAware Approximate
12:58AM 52.7934 -18.5861 104° East  Level FlightAware Approximate
12:59AM 52.7570 -18.3500 104° East  Level FlightAware Approximate
01:00AM 52.7202 -18.1143 104° East  Level FlightAware Approximate
01:01AM 52.6830 -17.8791 105° East  Level FlightAware Approximate
01:02AM 52.6452 -17.6442 105° East  Level FlightAware Approximate
01:03AM 52.6070 -17.4098 105° East  Level FlightAware Approximate
01:04AM 52.5684 -17.1757 105° East  Level FlightAware Approximate
01:05AM 52.5293 -16.9421 105° East  Level FlightAware Approximate
01:06AM 52.4897 -16.7089 105° East  Level FlightAware Approximate
01:07AM 52.4496 -16.4761 106° East  Level FlightAware Approximate
01:08AM 52.4091 -16.2438 106° East  Level FlightAware Approximate
01:09AM 52.3682 -16.0118 106° East  Level FlightAware Approximate
01:10AM 52.3268 -15.7803 106° East  Level FlightAware Approximate
01:11AM 52.2850 -15.5493 106° East  Level FlightAware Approximate
01:12AM 52.2426 -15.3187 107° East  Level FlightAware Approximate
01:12AM 52.5330 -13.1090 107° East 543 625 39,000  Level FlightAware
01:13AM 52.1999 -15.0885 107° East  Level FlightAware Approximate
01:13AM 52.4880 -12.9470 114° Southeast 545 627 39,000  Level FlightAware
01:13AM 52.4450 -12.7930 115° Southeast 546 628 39,000  Level FlightAware
01:14AM 52.3970 -12.6240 115° Southeast 545 627 39,000  Level FlightAware
01:15AM 52.3480 -12.4510 115° Southeast 544 626 39,000  Level FlightAware
01:16AM 52.2810 -12.2180 115° Southeast 542 624 39,000  Level FlightAware
01:16AM 52.2380 -12.0690 115° Southeast 541 623 39,000  Level FlightAware
01:17AM 52.1800 -11.8690 115° Southeast 540 621 39,000  Level FlightAware
01:18AM 52.1350 -11.7170 116° Southeast 538 619 39,000  Level FlightAware
01:19AM 52.0820 -11.5390 116° Southeast 538 619 39,000  Level FlightAware
01:20AM 52.0390 -11.3940 116° Southeast 538 619 39,000  Level FlightAware
01:20AM 51.9850 -11.2120 116° Southeast 535 616 39,000  Level FlightAware
01:21AM 51.9370 -11.0550 116° Southeast 536 617 39,000  Level FlightAware
01:22AM 51.8730 -10.8440 116° Southeast 541 623 39,000  Level FlightAware
01:23AM 51.8100 -10.6400 116° Southeast 541 623 39,000  Level FlightAware
01:24AM 51.7610 -10.4780 116° Southeast 542 624 39,000  Level FlightAware
01:25AM 51.7070 -10.3060 117° Southeast 543 625 39,000  Level FlightAware
01:25AM 51.6480 -10.1170 117° Southeast 543 625 39,000  Level FlightAware
01:26AM 51.6090 -9.9960 117° Southeast 543 625 39,000  Level FlightAware
01:27AM 51.5550 -9.8240 117° Southeast 545 627 39,000  Level FlightAware
01:27AM 51.5150 -9.6980 117° Southeast 542 624 39,000  Level FlightAware
01:28AM 51.4640 -9.5400 117° Southeast 542 624 39,000  Level FlightAware
01:29AM 51.4140 -9.3850 117° Southeast 541 623 39,000  Level FlightAware
01:30AM 51.3210 -9.0990 117° Southeast 545 627 39,000  Level FlightAware
01:31AM 51.2825 -8.9847 117° Southeast 498 573 39,000  Level FlightAware UK
01:31AM 51.2720 -8.9510 117° Southeast 545 627 39,000  Level FlightAware
01:32AM 51.2150 -8.7790 118° Southeast 545 627 39,000  Level FlightAware
01:32AM 51.1769 -8.6658 118° Southeast 496 571 39,000  Level FlightAware UK
01:32AM 51.1660 -8.6310 118° Southeast 544 626 39,000  Level FlightAware
01:33AM 51.1280 -8.5200 119° Southeast 546 628 39,000  Level FlightAware
01:34AM 51.0700 -8.3488 119° Southeast 494 568 39,000  Level FlightAware UK
01:34AM 51.0710 -8.3510 119° Southeast 543 625 39,000  Level FlightAware
01:34AM 51.0170 -8.1890 118° Southeast 543 625 39,000  Level FlightAware
01:35AM 50.9700 -8.0490 118° Southeast 544 626 39,000  Level FlightAware
01:36AM 50.9299 -7.9250 118° Southeast 496 571 39,000  Level FlightAware UK
01:36AM 50.9250 -7.8950 118° Southeast 546 628 39,000  Level FlightAware
01:37AM 50.8770 -7.7370 116° Southeast 547 629 39,000  Level FlightAware
01:37AM 50.8349 -7.5985 116° Southeast 496 571 39,000  Level FlightAware UK
01:37AM 50.8350 -7.5960 116° Southeast 546 628 39,000  Level FlightAware
01:38AM 50.7920 -7.4590 116° Southeast 544 626 39,000  Level FlightAware
01:39AM 50.7430 -7.2980 116° Southeast 543 625 39,000  Level FlightAware
01:39AM 50.7021 -7.1713 116° Southeast 496 571 39,000  Level FlightAware UK
01:39AM 50.6980 -7.1530 116° Southeast 543 625 39,000  Level FlightAware
01:40AM 50.6520 -7.0080 117° Southeast 542 624 39,000  Level FlightAware
01:41AM 50.6021 -6.8526 117° Southeast 496 571 39,000  Level FlightAware UK
01:41AM 50.6050 -6.8570 117° Southeast 540 621 39,000  Level FlightAware
01:41AM 50.5620 -6.7200 116° Southeast 540 621 39,000  Level FlightAware
01:42AM 50.5140 -6.5710 117° Southeast 541 623 39,000  Level FlightAware
01:43AM 50.4688 -6.4322 117° Southeast 496 571 39,000  Level FlightAware UK
01:43AM 50.4660 -6.4190 117° Southeast 541 623 39,000  Level FlightAware
01:43AM 50.4190 -6.2750 117° Southeast 542 624 39,000  Level FlightAware
01:44AM 50.3688 -6.1174 117° Southeast 494 568 39,000  Level FlightAware UK
01:44AM 50.3680 -6.1170 117° Southeast 543 625 39,000  Level FlightAware
01:45AM 50.3210 -5.9710 117° Southeast 544 626 39,000  Level FlightAware
01:46AM 50.2730 -5.8250 117° Southeast 541 623 39,000  Level FlightAware
01:46AM 50.2312 -5.6986 117° Southeast 494 568 39,000  Level FlightAware UK
01:46AM 50.2260 -5.6850 117° Southeast 539 620 39,000  Level FlightAware
01:47AM 50.1770 -5.5350 117° Southeast 539 620 39,000  Level FlightAware
01:48AM 50.1283 -5.3889 117° Southeast 496 571 39,000  Level FlightAware UK
01:48AM 50.1260 -5.3840 117° Southeast 536 617 39,000  Level FlightAware
01:48AM 50.0800 -5.2460 117° Southeast 534 615 39,000  Level FlightAware
01:49AM 50.0280 -5.0910 118° Southeast 536 617 39,000  Level FlightAware
01:50AM 49.9906 -4.9806 118° Southeast 496 571 39,000  Level FlightAware UK
01:50AM 49.9820 -4.9550 118° Southeast 535 616 39,000  Level FlightAware
01:50AM 49.9360 -4.8210 118° Southeast 531 611 39,000  Level FlightAware
01:51AM 49.8850 -4.6730 118° Southeast 530 610 39,000  Level FlightAware
01:52AM 49.8451 -4.5563 118° Southeast 494 568 39,000  Level FlightAware UK
01:52AM 49.8400 -4.5420 118° Southeast 529 609 39,000  Level FlightAware
01:53AM 49.7870 -4.3890 118° Southeast 528 608 39,000  Level FlightAware
01:53AM 49.7390 -4.2500 118° Southeast 529 609 39,000  Level FlightAware
01:54AM 49.7012 -4.1353 118° Southeast 494 568 39,000  Level FlightAware UK
01:54AM 49.6950 -4.1130 118° Southeast 534 615 39,000  Level FlightAware
01:55AM 49.6800 -3.9770 100° East 537 618 39,000  Level FlightAware
01:55AM 49.6670 -3.8040 97° East 535 616 39,000  Level FlightAware
01:56AM 49.6570 -3.6608 97° East 492 566 39,000  Level FlightAware UK
01:56AM 49.6550 -3.6390 97° East 534 615 39,000  Level FlightAware
01:57AM 49.6460 -3.5120 96° East 533 613 39,000  Level FlightAware
01:58AM 49.6320 -3.3200 96° East 534 615 39,000  Level FlightAware
01:58AM 49.6207 -3.1616 96° East 492 566 39,000  Level FlightAware UK
01:58AM 49.6210 -3.1710 96° East 535 616 39,000  Level FlightAware
01:59AM 49.6121 -3.0483 96° East 492 566 39,000  Level FlightAware UK
01:59AM 49.6090 -3.0140 96° East 536 617 39,000  Level FlightAware
02:00AM 49.5970 -2.8520 96° East 537 618 39,000  Level FlightAware
02:00AM 49.5928 -2.7977 96° East 494 568 39,000  Level FlightAware UK
02:01AM 49.5790 -2.6250 97° East 533 613 39,000  Level FlightAware
02:01AM 49.5690 -2.5050 97° East 535 616 39,000  Level FlightAware
02:01AM 49.5673 -2.4795 97° East 490 564 39,000  Level FlightAware UK
02:02AM 49.5582 -2.3666 97° East 488 562 39,000  Level FlightAware UK
02:02AM 49.5540 -2.3130 97° East 537 618 39,000  Level FlightAware
02:03AM 49.5420 -2.1740 98° East 539 620 39,000  Level FlightAware
02:03AM 49.5290 -2.0210 97° East 541 623 39,000  Level FlightAware
02:04AM 49.5150 -1.8510 97° East 537 618 39,000  Level FlightAware
02:05AM 49.5020 -1.7080 98° East 535 616 39,000 -120 Level FlightAware
02:05AM 49.4836 -1.5010 98° East 490 564 38,900 -240 Descending FlightAware UK
02:06AM 49.4820 -1.4790 98° East 529 609 38,800 -720 Descending FlightAware
02:06AM 49.4680 -1.3260 98° East 504 580 38,300 -1,140 Descending FlightAware
02:07AM 49.4540 -1.1810 98° East 493 567 37,200 -1,800 Descending FlightAware
02:08AM 49.4409 -1.0347 98° East 436 502 35,900 -1,920 Descending FlightAware UK
02:08AM 49.4410 -1.0350 98° East 491 565 35,900 -1,620 Level FlightAware
02:08AM 49.4290 -0.9120 98° East 479 551 34,900 -2,280 Descending FlightAware
02:09AM 49.4130 -0.7470 98° East 460 529 32,700 -2,820 Descending FlightAware
02:10AM 49.4020 -0.6280 98° East 449 517 30,800 -2,880 Descending FlightAware
02:10AM 49.3898 -0.5066 98° East 392 451 29,200 -2,400 Descending FlightAware UK
02:10AM 49.3890 -0.5000 98° East 438 504 29,200 -1,440 Level FlightAware
02:11AM 49.3771 -0.3781 98° East 386 444 28,200 -1,440 Descending FlightAware UK
02:11AM 49.3740 -0.3520 98° East 435 501 28,100 -540 Descending FlightAware
02:12AM 49.3610 -0.2170 98° East 426 490 27,700 -1,020 Descending FlightAware
02:13AM 49.3475 -0.0727 98° East 376 433 26,600 -1,440 Descending FlightAware UK
02:13AM 49.3470 -0.0710 98° East 418 481 26,600 -1,380 Level FlightAware
02:13AM 49.3377 0.0321 98° East 372 428 25,800 -1,200 Descending FlightAware UK
02:14AM 49.3360 0.0450 98° East 411 473 25,800 -1,080 Level FlightAware
02:14AM 49.3320 0.1730 93° East 404 465 24,900 -1,320 Descending FlightAware
02:15AM 49.3300 0.2810 92° East 399 459 24,000 -1,440 Descending FlightAware
02:16AM 49.3280 0.4010 91° East 395 455 23,000 -1,260 Descending FlightAware
02:16AM 49.3250 0.5170 92° East 387 445 22,300 -1,140 Descending FlightAware
02:17AM 49.3230 0.6240 92° East 377 434 21,500 -1,320 Descending FlightAware
02:18AM 49.3210 0.7360 92° East 376 433 20,500 -1,260 Descending FlightAware
02:18AM 49.3180 0.8480 92° East 369 425 19,700 -1,260 Descending FlightAware
02:19AM 49.3159 0.9532 92° East 332 382 18,800 -1,200 Descending FlightAware UK
02:19AM 49.3150 0.9940 92° East 360 414 18,600 -1,020 Descending FlightAware
02:20AM 49.3130 1.0930 92° East 356 410 17,800 -1,320 Descending FlightAware
02:20AM 49.3124 1.1055 92° East 328 377 17,700 -1,500 Descending FlightAware UK
02:21AM 49.3098 1.2116 92° East 322 371 16,700 -1,320 Descending FlightAware UK
02:21AM 49.3100 1.2080 92° East 353 406 16,800 -1,080 Climbing FlightAware
02:21AM 49.3070 1.3080 93° East 348 400 16,000 -960 Descending FlightAware
02:22AM 49.3048 1.4016 93° East 300 345 15,600 -480 Descending FlightAware UK
02:22AM 49.3050 1.4050 93° East 328 377 15,700 -420 Climbing FlightAware
02:23AM 49.3020 1.5040 93° East 307 353 15,300 -780 Descending FlightAware
02:23AM 49.2990 1.5870 93° East 303 349 14,600 -1,260 Descending FlightAware
02:24AM 49.2991 1.5992 93° East 274 315 14,400 -1,500 Descending FlightAware UK
02:24AM 49.2966 1.6633 93° East 280 322 13,800 -1,620 Descending FlightAware UK
02:24AM 49.2950 1.6890 93° East 317 365 13,300 -1,740 Descending FlightAware
02:25AM 49.2910 1.7780 94° East 322 371 12,300 -1,320 Descending FlightAware
02:26AM 49.2861 1.8796 94° East 298 343 11,500 -1,140 Descending FlightAware UK
02:26AM 49.2860 1.8790 94° East 313 360 11,500 -720 Level FlightAware
02:26AM 49.2820 1.9720 94° East 294 338 11,000 -780 Descending FlightAware UK
02:26AM 49.2820 1.9640 94° East 309 356 11,000  Level FlightAware
02:27AM 49.2780 2.0550 94° East 310 357 11,000  Level FlightAware
02:28AM 49.2730 2.1530 94° East 309 356 11,000  Level FlightAware
02:28AM 49.2684 2.2329 94° East 284 327 11,000  Level FlightAware UK
02:28AM 49.2690 2.2380 94° East 293 337 11,000  Level FlightAware
02:29AM 49.2662 2.3084 94° East 260 299 11,000  Level FlightAware UK
02:29AM 49.2650 2.3190 94° East 276 318 11,000  Level FlightAware
02:30AM 49.2620 2.3900 94° East 276 318 11,000  Level FlightAware
02:31AM 49.2570 2.4900 94° East 276 318 11,000 -480 Level FlightAware
02:31AM 49.2490 2.5650 99° East 268 308 10,400 -960 Descending FlightAware
02:32AM 49.2420 2.6270 100° East 267 307 9,900 -1,020 Descending FlightAware
02:32AM 49.2360 2.6800 100° East 266 306 9,400 -1,080 Descending FlightAware
02:33AM 49.2310 2.7230 100° East 264 304 9,000 -1,020 Descending FlightAware
02:33AM 49.2240 2.7790 101° East 260 299 8,500 -960 Descending FlightAware
02:34AM 49.2180 2.8280 101° East 258 297 8,100 -1,020 Descending FlightAware
02:34AM 49.2120 2.8790 100° East 255 293 7,600 -1,080 Descending FlightAware
02:35AM 49.2060 2.9290 100° East 253 291 7,100 -780 Descending FlightAware
02:35AM 49.2000 2.9760 101° East 240 276 6,900 -480 Descending FlightAware
02:35AM 49.1980 2.9940 100° East 234 269 6,800 -480 Descending FlightAware
02:36AM 49.1920 3.0430 101° East 214 246 6,600 -600 Descending FlightAware
02:36AM 49.1830 3.0730 115° Southeast 198 228 6,300 -900 Descending FlightAware
02:36AM 49.1690 3.0800 162° South 191 220 6,000 -1,200 Descending FlightAware
02:37AM 49.1420 3.0830 176° South 191 220 5,400 -1,200 Descending FlightAware
02:37AM 49.1180 3.0850 177° South 194 223 4,900 -660 Descending FlightAware
02:38AM 49.0930 3.0870 177° South 193 222 4,800 -180 Descending FlightAware
02:38AM 49.0820 3.0860 183° South 189 217 4,800  Level FlightAware
02:38AM 49.0730 3.0770 213° Southwest 184 212 4,800  Level FlightAware
02:38AM 49.0660 3.0600 238° Southwest 182 209 4,800  Level FlightAware
02:39AM 49.0530 3.0290 237° Southwest 182 209 4,800  Level FlightAware
02:39AM 49.0500 3.0090 257° West 181 208 4,800  Level FlightAware
02:40AM 49.0480 2.9750 265° West 183 211 4,800  Level FlightAware
02:40AM 49.0470 2.9600 264° West 182 209 4,800  Level FlightAware
02:40AM 49.0460 2.9250 268° West 182 209 4,800 -480 Level FlightAware
02:41AM 49.0440 2.8910 265° West 182 209 4,400 -960 Descending FlightAware
02:41AM 49.0420 2.8510 266° West 178 205 3,900 -1,020 Descending FlightAware
02:42AM 49.0400 2.8140 265° West 175 201 3,400 -1,020 Descending FlightAware
02:42AM 49.0380 2.7820 265° West 176 203 3,000 -900 Descending FlightAware
02:43AM 49.0370 2.7480 267° West 177 204 2,600 -900 Descending FlightAware
02:43AM 49.0350 2.7140 265° West 168 193 2,200 -840 Descending FlightAware
02:44AM 49.0330 2.6810 265° West 145 167 1,800 -780 Descending FlightAware
02:44AM 49.0320 2.6550 267° West 131 151 1,500 -780 Descending FlightAware
02:44AM 49.0310 2.6380 265° West 130 150 1,200 -540 Descending FlightAware
02:45AM 49.0300 2.6180 253° West 131 151 1,000 -360 Descending FlightAware
02:47AM 49.0128 2.5500 253° West  Level Estimated
02:50AM 49.0128 2.5500 249° West  Level Estimated
02:51AM 49.0128 2.5500 180° South  Level Estimated
02:52AM 49.0128 2.5500 180° South  Level Estimated
02:53AM 49.0128 2.5500 180° South  Level Estimated
02:54AM 49.0128 2.5500 180° South  Level Estimated
02:55AM 49.0128 2.5500 180° South  Level Estimated
02:56AM 49.0128 2.5500 180° South  Level Estimated
02:57AM 49.0128 2.5500 180° South  Level Estimated
02:58AM 49.0128 2.5500 180° South  Level Estimated
02:59AM 49.0128 2.5500 180° South  Level Estimated
03:00AM 49.0128 2.5500 180° South  Level Estimated
03:01AM 49.0128 2.5500 180° South  Level Estimated
03:02AM 49.0128 2.5500 180° South  Level Estimated